Time;durP1;ratioP1;P1;durP2;ratioP2;P2;SDS_P1;SDS_P2;PMS_P1;PMS_P2;Temp;Humidity;BMP_temperature;BMP_pressure;BME280_temperature;BME280_humidity;BME280_pressure;Samples;Min_cycle;Max_cycle;Signal;HPM_P1;HPM_P2
2021/12/20 00:00:38;;;;;;;13.20;7.80;;;10.80;54.30;;;;;;5093218;27;20467;-85
2021/12/20 00:03:05;;;;;;;15.93;6.80;;;10.60;54.90;;;;;;5077780;28;21077;-84
2021/12/20 00:05:32;;;;;;;16.70;8.70;;;10.70;55.10;;;;;;5092195;28;20463;-86
2021/12/20 00:08:00;;;;;;;16.80;9.77;;;10.80;55.10;;;;;;5093144;27;20455;-85
2021/12/20 00:10:27;;;;;;;18.00;8.67;;;11.00;55.20;;;;;;5057436;28;20859;-87
2021/12/20 00:12:54;;;;;;;12.50;6.87;;;11.10;55.10;;;;;;5094137;28;20849;-86
2021/12/20 00:15:21;;;;;;;18.23;9.60;;;11.00;54.60;;;;;;5077483;28;20466;-85
2021/12/20 00:17:48;;;;;;;12.10;7.67;;;10.80;54.50;;;;;;5090441;28;20542;-87
2021/12/20 00:20:17;;;;;;;15.03;7.47;;;10.90;54.80;;;;;;5095898;27;20801;-86
2021/12/20 00:22:44;;;;;;;12.97;7.00;;;10.90;54.80;;;;;;5094964;28;20490;-85
2021/12/20 00:25:13;;;;;;;14.50;7.97;;;11.00;54.70;;;;;;5092447;28;20816;-86
2021/12/20 00:27:40;;;;;;;11.50;6.50;;;11.10;54.80;;;;;;5090632;27;20464;-86
2021/12/20 00:30:10;;;;;;;11.73;6.43;;;11.00;54.60;;;;;;5093829;28;20967;-86
2021/12/20 00:32:37;;;;;;;13.40;6.80;;;11.00;54.50;;;;;;5092136;28;20683;-86
2021/12/20 00:35:06;;;;;;;15.20;8.40;;;11.10;54.80;;;;;;5059880;28;20444;-82
2021/12/20 00:40:20;;;;;;;10.47;6.30;;;11.20;54.50;;;;;;5093404;28;21027;-86
2021/12/20 00:42:49;;;;;;;12.70;6.90;;;11.10;54.10;;;;;;5094104;27;20557;-86
2021/12/20 00:45:16;;;;;;;14.00;6.33;;;11.10;54.10;;;;;;5091739;27;20471;-85
2021/12/20 00:47:43;;;;;;;9.63;6.00;;;11.00;54.20;;;;;;5092030;28;20459;-86
2021/12/20 00:50:12;;;;;;;10.07;5.57;;;11.00;54.40;;;;;;5056083;28;20445;-86
2021/12/20 00:52:40;;;;;;;11.73;5.70;;;10.90;54.40;;;;;;5091848;27;20834;-86
2021/12/20 00:55:08;;;;;;;13.20;6.60;;;10.90;54.50;;;;;;5091133;28;20944;-86
2021/12/20 00:57:36;;;;;;;8.47;4.97;;;10.90;54.40;;;;;;5091799;28;20806;-85
2021/12/20 01:00:05;;;;;;;8.07;5.97;;;10.90;54.60;;;;;;5071889;28;20455;-86
2021/12/20 01:02:32;;;;;;;18.07;6.50;;;10.90;54.50;;;;;;5061174;28;20482;-86
2021/12/20 01:04:59;;;;;;;10.10;5.70;;;10.90;54.50;;;;;;5061345;28;20514;-85
2021/12/20 01:07:28;;;;;;;11.27;6.10;;;10.90;54.40;;;;;;5073948;28;20863;-85
2021/12/20 01:09:58;;;;;;;11.30;5.30;;;10.80;54.10;;;;;;5092882;28;20443;-86
2021/12/20 01:12:29;;;;;;;9.63;5.63;;;10.80;54.40;;;;;;5090687;28;21230;-86
2021/12/20 01:14:59;;;;;;;11.13;5.60;;;10.90;55.00;;;;;;5072830;28;20447;-86
2021/12/20 01:17:27;;;;;;;8.50;5.60;;;10.90;54.40;;;;;;5093728;28;20512;-85
2021/12/20 01:19:53;;;;;;;9.17;5.30;;;10.90;54.30;;;;;;5077627;28;20458;-85
2021/12/20 01:22:20;;;;;;;10.70;5.97;;;10.80;54.00;;;;;;5091460;28;20494;-81
2021/12/20 01:24:47;;;;;;;11.47;6.83;;;10.80;54.30;;;;;;5058132;28;21053;-85
2021/12/20 01:27:14;;;;;;;10.47;5.60;;;10.90;54.40;;;;;;5094018;27;20454;-85
2021/12/20 01:29:41;;;;;;;12.40;5.47;;;10.90;54.30;;;;;;5073662;28;20838;-83
2021/12/20 01:32:09;;;;;;;10.00;5.30;;;10.70;54.60;;;;;;5089336;28;20462;-85
2021/12/20 01:34:37;;;;;;;10.03;5.40;;;10.50;54.50;;;;;;5057066;28;20448;-86
2021/12/20 01:37:04;;;;;;;10.57;5.53;;;10.60;54.60;;;;;;5093804;27;20513;-83
2021/12/20 01:39:31;;;;;;;11.37;5.33;;;10.70;54.60;;;;;;5089336;28;20459;-85
2021/12/20 01:41:59;;;;;;;7.40;5.20;;;10.70;54.70;;;;;;5059269;28;20472;-86
2021/12/20 01:44:26;;;;;;;12.20;4.80;;;10.70;54.30;;;;;;5078489;28;20506;-86
2021/12/20 01:46:53;;;;;;;11.07;6.23;;;10.80;54.40;;;;;;5072237;28;20958;-85
2021/12/20 01:49:22;;;;;;;10.33;4.67;;;10.80;54.50;;;;;;5090563;28;20459;-85
2021/12/20 01:52:02;;;;;;;9.90;6.07;;;10.60;54.50;;;;;;5073800;28;20566;-82
2021/12/20 01:54:29;;;;;;;7.80;5.20;;;10.40;54.70;;;;;;5093984;27;20970;-85
2021/12/20 01:56:56;;;;;;;11.63;5.40;;;10.40;55.00;;;;;;5072199;28;20944;-85
2021/12/20 01:59:23;;;;;;;10.67;5.40;;;10.60;55.00;;;;;;5088826;28;20456;-86
2021/12/20 02:01:52;;;;;;;10.10;4.43;;;10.60;54.70;;;;;;5060104;28;20479;-85
2021/12/20 02:04:20;;;;;;;8.40;5.37;;;10.60;54.60;;;;;;5074141;28;20456;-86
2021/12/20 02:06:49;;;;;;;10.33;5.30;;;10.50;54.70;;;;;;5074537;28;20517;-85
2021/12/20 02:09:18;;;;;;;8.10;5.17;;;10.40;54.90;;;;;;5070355;28;20459;-86
2021/12/20 02:11:47;;;;;;;8.47;5.30;;;10.40;54.80;;;;;;5071891;28;20479;-86
2021/12/20 02:14:15;;;;;;;9.43;5.50;;;10.40;54.80;;;;;;5089523;28;20513;-86
2021/12/20 02:16:44;;;;;;;9.77;4.87;;;10.40;54.90;;;;;;5094623;28;20450;-85
2021/12/20 02:19:14;;;;;;;9.33;5.43;;;10.40;54.80;;;;;;5089761;28;20508;-85
2021/12/20 02:21:45;;;;;;;9.87;5.57;;;10.40;54.80;;;;;;5091645;28;20486;-86
2021/12/20 02:24:12;;;;;;;8.80;4.47;;;10.40;54.70;;;;;;5075391;28;20847;-85
2021/12/20 02:26:39;;;;;;;14.17;6.50;;;10.50;54.70;;;;;;5072807;28;20455;-85
2021/12/20 02:29:08;;;;;;;11.03;5.33;;;10.50;54.50;;;;;;5072987;28;20997;-85
2021/12/20 02:37:20;;;;;;;9.10;4.93;;;10.40;54.40;;;;;;5070923;28;20481;-86
2021/12/20 02:39:48;;;;;;;7.37;3.63;;;10.30;54.50;;;;;;5047434;28;20778;-86
2021/12/20 02:42:19;;;;;;;8.13;4.13;;;10.30;54.60;;;;;;5074864;28;20482;-86
2021/12/20 02:45:03;;;;;;;8.30;5.00;;;10.30;54.60;;;;;;5063138;28;20459;-86
2021/12/20 02:47:30;;;;;;;8.80;4.43;;;10.30;54.60;;;;;;5073684;28;20542;-86
2021/12/20 02:49:58;;;;;;;8.63;4.77;;;10.30;54.70;;;;;;5058335;28;21371;-86
2021/12/20 02:52:26;;;;;;;13.53;5.30;;;10.30;54.70;;;;;;5074459;28;20470;-86
2021/12/20 02:54:53;;;;;;;11.23;5.20;;;10.30;54.60;;;;;;5073729;28;20460;-85
2021/12/20 02:57:21;;;;;;;7.70;4.63;;;10.30;54.60;;;;;;5088762;28;20459;-83
2021/12/20 02:59:48;;;;;;;10.77;5.07;;;10.30;54.50;;;;;;5074090;28;20479;-86
2021/12/20 03:02:16;;;;;;;8.77;4.23;;;10.30;54.50;;;;;;5074232;28;20497;-86
2021/12/20 03:04:43;;;;;;;7.80;5.03;;;10.30;54.60;;;;;;5078138;28;21141;-85
2021/12/20 03:07:15;;;;;;;7.73;4.90;;;10.40;54.70;;;;;;5079812;28;20463;-86
2021/12/20 03:09:50;;;;;;;10.10;5.47;;;10.30;54.80;;;;;;5079358;28;20462;-85
2021/12/20 03:12:17;;;;;;;7.10;5.70;;;10.30;54.90;;;;;;5095355;28;20478;-86
2021/12/20 03:14:47;;;;;;;10.13;4.97;;;10.30;54.90;;;;;;5077695;28;20472;-86
2021/12/20 03:17:14;;;;;;;6.97;4.47;;;10.30;54.90;;;;;;5059181;28;20446;-84
2021/12/20 03:19:41;;;;;;;9.80;5.00;;;10.40;54.90;;;;;;5080827;28;20466;-86
2021/12/20 03:22:09;;;;;;;7.27;4.57;;;10.40;54.80;;;;;;5076223;28;20482;-86
2021/12/20 03:24:36;;;;;;;9.50;5.47;;;10.40;54.70;;;;;;5076519;28;20450;-85
2021/12/20 03:27:06;;;;;;;9.37;5.53;;;10.30;54.70;;;;;;5095132;28;20463;-86
2021/12/20 03:29:33;;;;;;;12.07;4.67;;;10.20;55.00;;;;;;5094762;27;20460;-86
2021/12/20 03:32:00;;;;;;;8.10;4.90;;;10.20;55.30;;;;;;5093344;28;20922;-85
2021/12/20 03:34:27;;;;;;;4.73;3.43;;;10.20;55.40;;;;;;5098494;27;20451;-85
2021/12/20 03:36:54;;;;;;;7.80;4.13;;;10.30;55.40;;;;;;5092371;28;20841;-85
2021/12/20 03:39:21;;;;;;;9.10;5.47;;;10.30;55.30;;;;;;5062988;28;20466;-87
2021/12/20 03:41:48;;;;;;;9.27;4.80;;;10.30;55.20;;;;;;5086112;27;21032;-86
2021/12/20 03:44:16;;;;;;;10.60;4.80;;;10.30;55.20;;;;;;5078263;28;20470;-86
2021/12/20 03:46:43;;;;;;;13.40;5.30;;;10.30;55.10;;;;;;5093980;28;21017;-86
2021/12/20 03:49:10;;;;;;;7.97;4.20;;;10.30;55.10;;;;;;5076073;28;22199;-85
2021/12/20 03:51:37;;;;;;;8.00;4.80;;;10.30;55.20;;;;;;5078568;28;20482;-85
2021/12/20 03:54:05;;;;;;;14.37;5.90;;;10.40;55.30;;;;;;5095740;27;20465;-84
2021/12/20 03:56:32;;;;;;;7.47;4.63;;;10.40;55.30;;;;;;5078797;28;20459;-86
2021/12/20 03:58:59;;;;;;;7.90;4.70;;;10.40;55.10;;;;;;5095332;27;20451;-86
2021/12/20 04:01:28;;;;;;;7.33;4.60;;;10.40;55.10;;;;;;5057925;28;20474;-86
2021/12/20 04:03:57;;;;;;;10.77;4.50;;;10.30;55.10;;;;;;5093996;27;20482;-85
2021/12/20 04:06:24;;;;;;;13.73;5.27;;;10.40;55.40;;;;;;5092707;28;20466;-84
2021/12/20 04:08:51;;;;;;;11.13;4.87;;;10.30;55.40;;;;;;5093785;27;20455;-86
2021/12/20 04:11:18;;;;;;;7.53;5.03;;;10.20;55.70;;;;;;5065120;28;20481;-86
2021/12/20 04:13:45;;;;;;;9.93;5.73;;;10.20;55.80;;;;;;5071389;28;20459;-86
2021/12/20 04:16:12;;;;;;;9.80;5.27;;;10.10;55.40;;;;;;5092790;27;20934;-86
2021/12/20 04:18:41;;;;;;;10.87;4.70;;;10.00;55.70;;;;;;5074805;28;20454;-85
2021/12/20 04:21:08;;;;;;;7.60;5.17;;;9.90;56.80;;;;;;5095945;28;20474;-86
2021/12/20 04:23:35;;;;;;;10.30;4.80;;;9.90;56.90;;;;;;5076348;28;20850;-85
2021/12/20 04:26:02;;;;;;;5.43;4.13;;;9.70;57.20;;;;;;5066329;28;20794;-84
2021/12/20 04:28:29;;;;;;;12.97;6.90;;;9.80;57.20;;;;;;5074510;28;20451;-85
2021/12/20 04:30:56;;;;;;;9.77;5.87;;;9.90;57.10;;;;;;5096515;27;20506;-83
2021/12/20 04:33:23;;;;;;;8.33;5.30;;;9.70;57.20;;;;;;5061016;28;20459;-84
2021/12/20 04:35:52;;;;;;;9.07;5.67;;;9.80;57.10;;;;;;5089658;28;20458;-82
2021/12/20 04:38:19;;;;;;;8.00;5.40;;;9.90;57.20;;;;;;5093501;27;20461;-86
2021/12/20 04:40:46;;;;;;;11.27;6.77;;;9.90;57.10;;;;;;5093158;27;20461;-85
2021/12/20 04:43:13;;;;;;;16.77;9.30;;;10.00;56.20;;;;;;5092516;27;20666;-86
2021/12/20 04:45:40;;;;;;;13.00;8.33;;;10.10;55.90;;;;;;5070166;28;20459;-86
2021/12/20 04:48:07;;;;;;;14.00;8.77;;;10.10;55.70;;;;;;5076748;28;20462;-85
2021/12/20 04:50:34;;;;;;;9.97;7.00;;;10.10;55.60;;;;;;5091731;28;20455;-85
2021/12/20 04:53:03;;;;;;;62.70;30.93;;;10.10;55.40;;;;;;5093280;27;20455;-83
2021/12/20 04:55:31;;;;;;;22.53;13.90;;;10.00;55.20;;;;;;5058930;28;20855;-85
2021/12/20 04:57:59;;;;;;;22.60;14.37;;;10.00;55.60;;;;;;5092769;28;20465;-87
2021/12/20 05:00:29;;;;;;;16.20;10.70;;;10.00;55.70;;;;;;5073817;28;20969;-85
2021/12/20 05:02:56;;;;;;;12.63;5.97;;;10.00;55.50;;;;;;5057736;28;20477;-85
2021/12/20 05:05:23;;;;;;;11.33;6.97;;;9.70;56.80;;;;;;5074359;28;20458;-86
2021/12/20 05:07:53;;;;;;;12.20;7.90;;;9.70;57.10;;;;;;5075204;28;20447;-85
2021/12/20 05:10:31;;;;;;;18.17;9.27;;;9.80;56.90;;;;;;5092085;28;20922;-85
2021/12/20 05:12:59;;;;;;;7.33;5.30;;;9.90;56.60;;;;;;5091547;27;20486;-84
2021/12/20 05:15:27;;;;;;;15.50;8.13;;;9.80;57.00;;;;;;5057169;28;20454;-85
2021/12/20 05:17:55;;;;;;;16.33;7.47;;;9.90;57.00;;;;;;5088288;28;20448;-85
2021/12/20 05:20:22;;;;;;;12.23;6.63;;;9.80;56.80;;;;;;5072073;28;20502;-86
2021/12/20 05:22:49;;;;;;;8.43;5.40;;;9.90;56.80;;;;;;5091988;28;20493;-86
2021/12/20 05:25:16;;;;;;;11.03;6.10;;;10.00;55.80;;;;;;5091452;27;20451;-85
2021/12/20 05:27:45;;;;;;;9.20;6.30;;;10.00;55.70;;;;;;5072209;28;20454;-84
2021/12/20 05:30:13;;;;;;;10.90;6.47;;;10.00;55.50;;;;;;5090142;28;20462;-85
2021/12/20 05:32:40;;;;;;;13.20;6.97;;;10.00;55.30;;;;;;5073017;28;20484;-85
2021/12/20 05:35:09;;;;;;;10.40;6.13;;;10.00;55.20;;;;;;5089918;28;20455;-87
2021/12/20 05:37:36;;;;;;;7.03;4.93;;;10.00;55.30;;;;;;5088445;28;20463;-85
2021/12/20 05:40:04;;;;;;;10.23;6.10;;;10.00;55.20;;;;;;5074390;28;20459;-84
2021/12/20 05:42:31;;;;;;;11.60;5.50;;;10.00;55.00;;;;;;5093234;28;20477;-85
2021/12/20 05:44:59;;;;;;;8.13;5.30;;;10.00;54.80;;;;;;5089882;28;20979;-81
2021/12/20 05:47:26;;;;;;;16.33;9.30;;;10.00;54.70;;;;;;5091057;28;20453;-85
2021/12/20 05:49:54;;;;;;;13.60;8.33;;;9.80;55.50;;;;;;5094189;27;20488;-85
2021/12/20 05:52:21;;;;;;;11.50;6.10;;;9.80;55.90;;;;;;5074004;28;20478;-86
2021/12/20 05:54:48;;;;;;;10.80;6.37;;;9.70;55.90;;;;;;5060764;28;20782;-86
2021/12/20 05:57:15;;;;;;;12.77;7.20;;;9.70;55.80;;;;;;5057734;28;21356;-86
2021/12/20 05:59:42;;;;;;;11.37;6.63;;;9.70;55.60;;;;;;5090381;28;20838;-86
2021/12/20 06:02:10;;;;;;;10.63;5.23;;;9.70;55.50;;;;;;5090551;28;20463;-86
2021/12/20 06:04:37;;;;;;;8.20;4.40;;;9.70;55.50;;;;;;5090978;27;21007;-85
2021/12/20 06:07:05;;;;;;;8.83;4.50;;;9.70;55.40;;;;;;5061625;28;20439;-86
2021/12/20 06:09:32;;;;;;;11.93;3.60;;;9.60;55.20;;;;;;5094161;28;20451;-84
2021/12/20 06:11:59;;;;;;;13.97;5.07;;;9.50;54.80;;;;;;5072462;28;20470;-85
2021/12/20 06:14:27;;;;;;;5.63;4.60;;;9.40;55.00;;;;;;5092510;28;20452;-84
2021/12/20 06:16:57;;;;;;;17.07;10.43;;;9.40;54.90;;;;;;5085555;28;20566;-87
2021/12/20 06:19:26;;;;;;;13.17;6.43;;;9.40;54.60;;;;;;5071302;28;20455;-85
2021/12/20 06:21:55;;;;;;;7.40;4.60;;;9.30;54.70;;;;;;5090192;28;20692;-85
2021/12/20 06:24:22;;;;;;;4.30;3.47;;;9.30;54.60;;;;;;5063737;28;20479;-84
2021/12/20 06:26:50;;;;;;;4.57;2.93;;;9.00;55.00;;;;;;5090010;28;20458;-86
2021/12/20 06:29:17;;;;;;;7.07;3.57;;;8.80;55.60;;;;;;5071272;28;20477;-85
2021/12/20 06:31:44;;;;;;;5.70;2.63;;;8.60;55.90;;;;;;5073949;28;20481;-84
2021/12/20 06:34:11;;;;;;;6.83;3.00;;;8.50;56.40;;;;;;5092142;28;20458;-84
2021/12/20 06:36:40;;;;;;;7.80;4.23;;;8.60;56.10;;;;;;5078550;28;20439;-83
2021/12/20 06:39:07;;;;;;;6.53;4.10;;;8.70;55.80;;;;;;5076603;28;20477;-85
2021/12/20 06:41:34;;;;;;;7.17;3.37;;;8.80;55.50;;;;;;5095706;27;20479;-84
2021/12/20 06:44:04;;;;;;;4.27;2.57;;;8.90;55.10;;;;;;5098651;27;20478;-84
2021/12/20 06:46:32;;;;;;;3.20;2.63;;;8.90;54.40;;;;;;5085942;28;20454;-86
2021/12/20 06:48:59;;;;;;;8.40;2.97;;;8.80;54.50;;;;;;5071373;28;20463;-84
2021/12/20 06:51:26;;;;;;;8.50;3.60;;;8.90;54.50;;;;;;5094938;27;21063;-84
2021/12/20 06:53:55;;;;;;;26.83;15.77;;;8.90;54.30;;;;;;5067521;28;20459;-86
2021/12/20 06:56:22;;;;;;;75.23;39.80;;;8.80;54.00;;;;;;5096461;27;20841;-84
2021/12/20 06:58:53;;;;;;;42.13;26.50;;;8.80;53.90;;;;;;5056411;28;20451;-85
2021/12/20 07:01:20;;;;;;;14.07;7.77;;;8.70;53.90;;;;;;5091975;27;20474;-84
2021/12/20 07:03:47;;;;;;;23.43;8.97;;;8.50;54.30;;;;;;5072842;28;20494;-85
2021/12/20 07:06:14;;;;;;;8.03;5.53;;;8.40;54.90;;;;;;5076123;28;20444;-86
2021/12/20 07:08:41;;;;;;;16.03;5.13;;;8.40;54.60;;;;;;5069972;28;20451;-84
2021/12/20 07:11:10;;;;;;;12.27;6.00;;;8.40;54.30;;;;;;5075018;28;21179;-83
2021/12/20 07:13:37;;;;;;;20.20;7.13;;;8.50;54.50;;;;;;5065910;28;20686;-85
2021/12/20 07:16:05;;;;;;;9.80;4.50;;;8.50;54.20;;;;;;5071202;28;20625;-86
2021/12/20 07:18:32;;;;;;;6.57;3.13;;;8.10;55.00;;;;;;5072321;28;20456;-87
2021/12/20 07:20:58;;;;;;;13.60;4.07;;;8.00;55.20;;;;;;5074027;28;20890;-85
2021/12/20 07:23:25;;;;;;;15.10;7.07;;;7.90;55.30;;;;;;5090077;28;20973;-86
2021/12/20 07:25:53;;;;;;;14.47;7.50;;;8.00;55.40;;;;;;5089720;27;20467;-85
2021/12/20 07:28:22;;;;;;;23.67;8.20;;;8.00;55.20;;;;;;5093165;27;20492;-86
2021/12/20 07:30:49;;;;;;;26.53;8.57;;;8.00;55.10;;;;;;5089605;28;20459;-87
2021/12/20 07:33:16;;;;;;;24.90;9.83;;;8.10;55.00;;;;;;5074700;28;20522;-87
2021/12/20 07:35:44;;;;;;;22.27;11.80;;;8.20;54.70;;;;;;5077326;28;20462;-88
2021/12/20 07:38:14;;;;;;;67.57;39.80;;;8.20;54.20;;;;;;5074042;28;20459;-88
2021/12/20 07:40:44;;;;;;;48.10;25.33;;;7.80;54.60;;;;;;5074128;27;20443;-86
2021/12/20 07:43:11;;;;;;;37.23;14.87;;;7.70;54.90;;;;;;5072812;28;20448;-84
2021/12/20 07:45:40;;;;;;;10.23;5.70;;;7.80;55.10;;;;;;5089870;28;21041;-85
2021/12/20 07:48:06;;;;;;;15.77;6.07;;;7.80;55.10;;;;;;5071083;28;20446;-86
2021/12/20 07:50:34;;;;;;;5.73;2.50;;;7.80;55.00;;;;;;5074120;28;20744;-87
2021/12/20 07:53:01;;;;;;;8.70;2.63;;;7.80;55.10;;;;;;5059346;28;20443;-86
2021/12/20 07:55:28;;;;;;;7.77;3.40;;;7.80;54.90;;;;;;5062345;27;20442;-87
2021/12/20 07:57:55;;;;;;;8.43;3.30;;;7.90;54.70;;;;;;5073230;28;20955;-86
2021/12/20 08:00:22;;;;;;;11.93;5.33;;;8.00;54.20;;;;;;5093336;27;20814;-85
2021/12/20 08:02:51;;;;;;;16.80;6.80;;;8.10;54.00;;;;;;5073563;28;20745;-85
2021/12/20 08:05:19;;;;;;;19.50;4.90;;;8.10;53.60;;;;;;5074940;28;21106;-85
2021/12/20 08:07:50;;;;;;;14.50;4.90;;;8.10;53.70;;;;;;5076895;28;20804;-86
2021/12/20 08:10:17;;;;;;;8.47;5.70;;;8.00;54.00;;;;;;5074182;28;20443;-87
2021/12/20 08:12:45;;;;;;;12.73;5.00;;;8.00;53.90;;;;;;5095752;27;20828;-83
2021/12/20 08:15:13;;;;;;;43.50;18.17;;;8.00;54.00;;;;;;5080402;28;20966;-85
2021/12/20 08:17:40;;;;;;;247.83;67.07;;;7.90;54.00;;;;;;5076748;28;20463;-86
2021/12/20 08:20:11;;;;;;;85.93;29.60;;;7.90;54.10;;;;;;5093426;27;20451;-86
2021/12/20 08:22:39;;;;;;;23.53;11.33;;;7.90;54.30;;;;;;5076866;28;20470;-86
2021/12/20 08:25:07;;;;;;;20.70;10.13;;;7.90;54.20;;;;;;5076035;27;20476;-86
2021/12/20 08:27:34;;;;;;;21.67;9.63;;;7.90;54.10;;;;;;5073460;28;20832;-85
2021/12/20 08:30:02;;;;;;;22.80;10.13;;;8.00;54.10;;;;;;5092725;28;20818;-85
2021/12/20 08:32:29;;;;;;;28.20;9.73;;;8.00;53.90;;;;;;5076639;28;20489;-85
2021/12/20 08:34:56;;;;;;;16.30;7.10;;;8.00;53.80;;;;;;5075207;28;20451;-83
2021/12/20 08:37:24;;;;;;;21.97;9.87;;;8.00;53.70;;;;;;5093689;28;20470;-85
2021/12/20 08:39:52;;;;;;;14.50;5.40;;;8.00;53.60;;;;;;5076080;28;21131;-87
2021/12/20 08:42:19;;;;;;;13.03;6.20;;;8.00;53.70;;;;;;5093772;28;20486;-85
2021/12/20 08:44:46;;;;;;;17.30;7.07;;;8.00;53.70;;;;;;5092641;28;20997;-87
2021/12/20 08:47:14;;;;;;;18.90;7.10;;;8.00;53.60;;;;;;5060533;28;20445;-82
2021/12/20 08:49:41;;;;;;;11.90;5.60;;;8.00;53.60;;;;;;5075482;28;20462;-86
2021/12/20 08:52:11;;;;;;;12.63;6.03;;;8.00;53.60;;;;;;5057607;28;20487;-87
2021/12/20 08:54:39;;;;;;;8.77;5.33;;;8.00;53.60;;;;;;5078620;28;20462;-87
2021/12/20 08:57:07;;;;;;;13.63;5.50;;;8.00;53.90;;;;;;5091711;27;20738;-86
2021/12/20 08:59:34;;;;;;;11.93;5.70;;;8.00;53.70;;;;;;5066005;28;20566;-83
2021/12/20 09:02:04;;;;;;;6.67;4.47;;;8.00;53.60;;;;;;5055168;28;20470;-86
2021/12/20 09:04:31;;;;;;;6.60;4.30;;;8.00;53.50;;;;;;5056366;28;20581;-84
2021/12/20 09:06:58;;;;;;;7.60;4.10;;;8.00;53.60;;;;;;5076749;27;20452;-86
2021/12/20 09:09:25;;;;;;;9.03;5.43;;;8.00;53.50;;;;;;5092346;27;20782;-85
2021/12/20 09:11:53;;;;;;;11.20;5.80;;;8.00;53.60;;;;;;5094361;28;20884;-84
2021/12/20 09:14:20;;;;;;;6.30;4.50;;;8.00;53.50;;;;;;5091112;27;20447;-81
2021/12/20 09:16:47;;;;;;;7.73;4.50;;;8.00;53.50;;;;;;5087357;28;20463;-84
2021/12/20 09:19:14;;;;;;;13.30;5.90;;;8.00;53.50;;;;;;5093003;28;20463;-83
2021/12/20 09:21:41;;;;;;;19.20;6.03;;;8.00;53.60;;;;;;5090704;28;20825;-83
2021/12/20 09:24:09;;;;;;;5.67;4.07;;;8.00;53.60;;;;;;5088329;28;20464;-84
2021/12/20 09:26:36;;;;;;;10.13;4.73;;;8.00;53.60;;;;;;5092104;27;20448;-86
2021/12/20 09:29:05;;;;;;;8.00;4.60;;;8.00;53.60;;;;;;5073689;28;20975;-84
2021/12/20 09:31:32;;;;;;;8.50;3.53;;;8.00;53.70;;;;;;5074244;28;20482;-84
2021/12/20 09:33:59;;;;;;;10.60;4.63;;;8.00;53.60;;;;;;5075489;28;20757;-84
2021/12/20 09:36:29;;;;;;;11.07;3.50;;;8.00;53.60;;;;;;5089453;28;20482;-82
2021/12/20 09:38:58;;;;;;;8.37;4.60;;;8.00;53.60;;;;;;5081271;28;20451;-86
2021/12/20 09:41:59;;;;;;;6.83;4.73;;;8.00;53.60;;;;;;5069990;28;20923;-82
2021/12/20 09:44:22;;;;;;;7.80;4.30;;;8.00;53.60;;;;;;5071939;28;20467;-86
2021/12/20 09:46:49;;;;;;;17.43;4.00;;;8.00;53.50;;;;;;5089033;27;20884;-85
2021/12/20 09:49:19;;;;;;;5.30;3.50;;;8.00;53.50;;;;;;5079041;28;20452;-86
2021/12/20 09:51:46;;;;;;;3.53;3.00;;;8.00;53.50;;;;;;5055177;28;20479;-83
2021/12/20 09:54:13;;;;;;;8.50;4.43;;;8.00;53.50;;;;;;5072695;28;20832;-84
2021/12/20 09:56:41;;;;;;;7.70;3.43;;;8.00;53.70;;;;;;5071849;28;20451;-85
2021/12/20 09:59:12;;;;;;;15.63;4.03;;;8.00;53.60;;;;;;5061836;28;20444;-83
2021/12/20 10:01:41;;;;;;;12.03;4.37;;;8.00;53.60;;;;;;5059792;28;20845;-85
2021/12/20 10:04:08;;;;;;;7.37;4.10;;;8.00;53.60;;;;;;5069940;27;20466;-84
2021/12/20 10:06:35;;;;;;;6.77;4.30;;;8.00;53.80;;;;;;5075868;28;20465;-85
2021/12/20 10:09:10;;;;;;;14.30;5.20;;;8.00;53.90;;;;;;5092252;28;20462;-85
2021/12/20 10:11:38;;;;;;;9.37;3.73;;;8.00;54.00;;;;;;5088702;28;20467;-85
2021/12/20 10:14:07;;;;;;;32.07;7.73;;;8.00;54.00;;;;;;5057999;28;20860;-85
2021/12/20 10:16:35;;;;;;;23.53;6.73;;;7.90;54.20;;;;;;5092645;28;20489;-84
2021/12/20 10:19:04;;;;;;;7.87;5.03;;;8.00;54.60;;;;;;5095269;28;20490;-85
2021/12/20 10:21:37;;;;;;;41.97;10.83;;;8.00;54.80;;;;;;5073850;28;20474;-85
2021/12/20 10:24:04;;;;;;;14.13;5.40;;;8.10;54.90;;;;;;5093250;28;20466;-87
2021/12/20 10:26:39;;;;;;;8.90;5.27;;;8.10;54.80;;;;;;5071981;28;20841;-86
2021/12/20 10:29:17;;;;;;;8.83;3.90;;;8.20;54.70;;;;;;5065137;28;20450;-86
2021/12/20 10:31:44;;;;;;;11.43;4.60;;;8.20;54.40;;;;;;5094914;28;20483;-85
2021/12/20 10:34:14;;;;;;;9.60;4.00;;;8.20;54.30;;;;;;5078377;28;21036;-87
2021/12/20 10:36:51;;;;;;;12.97;4.90;;;8.20;54.30;;;;;;5092824;28;20835;-83
2021/12/20 10:39:18;;;;;;;10.93;4.80;;;8.20;54.20;;;;;;5065110;28;20482;-87
2021/12/20 10:41:50;;;;;;;7.50;3.87;;;8.20;54.10;;;;;;5073247;28;20475;-85
2021/12/20 10:44:20;;;;;;;9.27;4.30;;;8.20;53.90;;;;;;5072166;28;20512;-86
2021/12/20 10:46:50;;;;;;;5.17;3.67;;;8.10;53.80;;;;;;5074819;28;20553;-85
2021/12/20 10:49:19;;;;;;;5.60;2.40;;;8.10;53.60;;;;;;5089757;28;20451;-85
2021/12/20 10:51:48;;;;;;;6.33;2.23;;;8.10;53.30;;;;;;5089495;28;20468;-87
2021/12/20 10:54:18;;;;;;;2.50;2.20;;;8.10;51.90;;;;;;5074299;28;20462;-84
2021/12/20 10:56:51;;;;;;;5.57;1.80;;;8.00;51.30;;;;;;5092895;28;20564;-85
2021/12/20 10:59:21;;;;;;;3.97;2.83;;;7.90;51.00;;;;;;5073453;28;20776;-85
2021/12/20 11:04:35;;;;;;;4.80;2.00;;;8.00;51.10;;;;;;5070909;28;20476;-85
2021/12/20 11:09:47;;;;;;;5.20;2.17;;;8.20;49.60;;;;;;5074637;28;20457;-85
2021/12/20 11:12:16;;;;;;;7.77;2.77;;;8.20;49.70;;;;;;5089772;28;20477;-85
2021/12/20 11:14:46;;;;;;;3.80;1.93;;;8.30;49.60;;;;;;5056630;28;20841;-86
2021/12/20 11:17:16;;;;;;;2.33;2.13;;;8.20;49.10;;;;;;5072736;28;20837;-85
2021/12/20 11:19:45;;;;;;;6.13;2.40;;;8.30;49.80;;;;;;5082437;28;20455;-85
2021/12/20 11:22:14;;;;;;;6.57;2.50;;;8.30;50.10;;;;;;5071713;27;20511;-87
2021/12/20 11:24:46;;;;;;;3.60;1.80;;;8.20;48.30;;;;;;5059870;28;20434;-83
2021/12/20 11:27:16;;;;;;;8.23;2.20;;;8.00;49.20;;;;;;5086323;28;20494;-85
2021/12/20 11:29:46;;;;;;;5.23;2.50;;;8.20;50.10;;;;;;5076236;28;20507;-85
2021/12/20 11:32:14;;;;;;;4.40;2.87;;;8.20;49.20;;;;;;5076364;28;20471;-85
2021/12/20 11:34:42;;;;;;;9.33;3.90;;;8.30;49.40;;;;;;5097508;28;20458;-86
2021/12/20 11:37:13;;;;;;;8.93;3.67;;;8.50;49.40;;;;;;5097625;27;20525;-82
2021/12/20 11:39:41;;;;;;;5.40;2.43;;;8.60;48.40;;;;;;5099171;28;20461;-86
2021/12/20 11:42:09;;;;;;;6.37;2.10;;;8.70;48.10;;;;;;5079172;28;20471;-85
2021/12/20 11:44:38;;;;;;;6.30;2.83;;;8.80;47.80;;;;;;5096206;27;20449;-83
2021/12/20 11:47:10;;;;;;;8.90;4.20;;;8.80;47.70;;;;;;5095889;28;20558;-85
2021/12/20 11:49:38;;;;;;;11.00;4.23;;;8.90;47.90;;;;;;5094600;28;20451;-81
2021/12/20 11:52:08;;;;;;;6.20;3.37;;;9.00;47.80;;;;;;5096118;27;20478;-86
2021/12/20 11:54:39;;;;;;;3.90;1.37;;;8.90;45.90;;;;;;5097084;28;20461;-85
2021/12/20 11:57:08;;;;;;;4.07;2.10;;;8.70;45.30;;;;;;5095788;28;20469;-85
2021/12/20 11:59:52;;;;;;;8.23;4.40;;;8.70;46.10;;;;;;5074788;28;20828;-86
2021/12/20 12:02:21;;;;;;;13.80;3.97;;;8.90;46.60;;;;;;5095468;27;20471;-85
2021/12/20 12:05:07;;;;;;;9.83;3.03;;;9.00;47.50;;;;;;5075265;28;20459;-86
2021/12/20 12:07:37;;;;;;;9.43;3.40;;;9.20;47.20;;;;;;5074850;28;20454;-85
2021/12/20 12:10:09;;;;;;;7.83;2.80;;;9.30;47.10;;;;;;5095883;27;20458;-85
2021/12/20 12:12:40;;;;;;;9.07;3.10;;;9.40;46.70;;;;;;5093393;28;20579;-84
2021/12/20 12:15:10;;;;;;;8.87;3.20;;;9.40;46.00;;;;;;5094772;28;20973;-86
2021/12/20 12:17:52;;;;;;;13.17;4.47;;;9.50;45.80;;;;;;5092541;28;20821;-86
2021/12/20 12:20:47;;;;;;;6.37;3.63;;;9.70;45.40;;;;;;5065292;28;20462;-86
2021/12/20 12:23:17;;;;;;;11.27;3.60;;;9.70;44.40;;;;;;5078016;28;20520;-84
2021/12/20 12:25:49;;;;;;;8.10;2.73;;;9.80;44.20;;;;;;5082026;28;20986;-86
2021/12/20 12:28:17;;;;;;;12.60;5.77;;;9.80;43.70;;;;;;5074307;28;20547;-86
2021/12/20 12:30:59;;;;;;;8.83;3.27;;;9.90;43.80;;;;;;5081612;28;20444;-84
2021/12/20 12:33:38;;;;;;;3.63;2.23;;;9.80;43.60;;;;;;5093761;28;20470;-85
2021/12/20 12:36:28;;;;;;;9.30;3.90;;;10.00;43.00;;;;;;5090514;28;20454;-86
2021/12/20 12:38:58;;;;;;;9.23;2.47;;;10.10;41.50;;;;;;5088315;28;20508;-85
2021/12/20 12:41:28;;;;;;;10.07;3.83;;;10.20;42.00;;;;;;5093556;28;20473;-86
2021/12/20 12:44:09;;;;;;;5.50;2.50;;;10.40;41.90;;;;;;5049605;28;20645;-86
2021/12/20 12:46:45;;;;;;;5.33;1.87;;;10.60;41.40;;;;;;5072616;28;20485;-84
2021/12/20 12:49:49;;;;;;;3.50;2.37;;;10.90;41.60;;;;;;5076339;28;20622;-85
2021/12/20 12:52:37;;;;;;;8.00;3.80;;;11.10;41.10;;;;;;5070741;28;20477;-87
2021/12/20 12:55:27;;;;;;;5.70;2.13;;;11.00;39.30;;;;;;5059636;27;20530;-84
2021/12/20 12:57:56;;;;;;;19.23;5.70;;;10.90;40.50;;;;;;5092684;28;20451;-86
2021/12/20 13:00:33;;;;;;;10.17;3.30;;;11.30;40.90;;;;;;5095114;27;20469;-86
2021/12/20 13:03:15;;;;;;;5.60;2.30;;;11.50;39.90;;;;;;5038896;28;20483;-86
2021/12/20 13:05:42;;;;;;;6.83;3.10;;;11.60;40.30;;;;;;5090581;28;21012;-87
2021/12/20 13:08:10;;;;;;;5.90;2.57;;;11.70;40.10;;;;;;5093749;28;20458;-86
2021/12/20 13:10:41;;;;;;;11.67;3.97;;;11.80;39.30;;;;;;5092995;28;20451;-87